帯広空港の過去48時間の天気

帯広空港 (Obihiro)

現在時刻: 1/21 13:09 JST (1/21 04:09 UTC) 以下の時間は現地時間です。

過去48時間のMETAR気象情報
時間 風向 風速(m/s) 視程 気温(℃) 湿度(%) 気圧(hPa) 天気現象
21 12:00 北北西 8 10km以上 -2 59 1012
21 11:00 北北西 8 10km以上 -3 63 1012
21 10:00 北西 8 10km以上 -3 74 1012
21 09:00 西北西 2 10km以上 -6 93 1011
21 08:00 西 2 10km以上 -11 85 1011
21 07:40 南西 2 10km以上 -10 92 1010
20 20:48 南東 1 2400m -8 93 1006 もや
20 20:39 不定 1 1500m -9 92 1006 もや
20 20:30 不定 1 900m -9 92 1006 氷霧
20 20:19 南東 2 500m -10 92 1006 氷霧
20 20:01 南東 2 400m -9 92 1006 氷霧
20 19:32 南南東 2 300m -11 92 1006 氷霧
20 19:20 南南東 3 400m -11 92 1006 氷霧
20 19:07 南南東 3 300m -10 92 1006 氷霧
20 19:00 南東 1 500m -9 92 1006 氷霧
20 18:47 不定 1 800m -9 92 1006 氷霧
20 18:38 2 800m -9 92 1006 氷霧
20 18:29 南南東 1 900m -7 100 1006 氷霧
20 18:08 不定 1 1400m -8 100 1006 部分霧 もや
20 18:00 静穏 0 1500m -6 100 1006 もや
20 17:48 1 1000m -5 93 1006 もや
20 17:38 不定 1 2300m -6 93 1006 もや
20 17:00 西 2 5000m -4 93 1005 弱いしゅう雪
20 16:00 北西 3 5000m -3 93 1005 弱いしゅう雪
20 15:39 北西 3 3200m -3 93 1005 弱いしゅう雪
20 15:13 北西 3 2300m -3 93 1005 弱いしゅう雪
20 15:00 北西 3 2400m -3 93 1005 弱いしゅう雪
20 14:22 北西 4 2300m -2 86 1005 弱いしゅう雪
20 14:16 北北西 4 3100m -2 86 1005 弱いしゅう雪
20 14:00 北北西 4 4000m -3 93 1005 弱いしゅう雪
20 13:23 北北西 4 5000m -3 93 1004 弱いしゅう雪
20 13:09 北北西 4 3200m -3 93 1005 弱いしゅう雪
20 13:00 北北西 4 2400m -3 93 1005 弱いしゅう雪
20 12:50 北北西 4 2300m -3 93 1005 弱いしゅう雪
20 12:00 北北西 4 3200m -4 93 1006 弱いしゅう雪
20 11:00 北北西 4 2500m -4 93 1007 弱いしゅう雪
20 10:49 北北西 4 3100m -4 93 1007 弱いしゅう雪
20 10:18 北北西 4 3200m -4 93 1007 弱いしゅう雪
20 10:00 北北西 3 2400m -4 93 1007 弱い雪
20 09:50 北西 4 1600m -4 93 1008 弱い雪
20 09:00 北西 3 1400m -5 93 1008 弱い雪
20 08:24 西北西 2 1400m -5 93 1009 弱い雪
20 08:15 西北西 2 1500m -6 100 1009 弱い雪
20 08:00 西北西 2 2000m -6 93 1009 弱い雪
20 07:40 西北西 2 1800m -6 93 1009 弱い雪
RJCB 210300Z 33015KT 9999 FEW030 M02/M09 Q1012
RJCB 210200Z 33016KT 9999 FEW030 M03/M09 Q1012
RJCB 210100Z 32015KT 9999 FEW040 M03/M07 Q1012
RJCB 210000Z 30003KT 270V330 9999 FEW040 M06/M07 Q1011
RJCB 202300Z 26003KT 9999 FEW030 BKN060 M11/M13 Q1011
RJCB 202240Z 22003KT 190V270 9999 FEW030 SCT/// M10/M11 Q1010 RMK 1CU030 A2984
RJCB 201148Z 14002KT 2400 BR FEW001 SCT080 M08/M09 Q1006 RMK 1ST001 3AC080 A2973
RJCB 201139Z VRB02KT 1500 R35/P2000N BR FEW001 SCT080 M09/M10 Q1006 RMK 1ST001 3AC080 A2973
RJCB 201130Z VRB02KT 0900 R35/0900VP2000U FZFG FEW001 M09/M10 Q1006 RMK 2ST001 A2973
RJCB 201119Z 14003KT 0500 R35/0800N FZFG SCT001 M10/M11 Q1006 RMK 3ST001 A2972
RJCB 201101Z 14004KT 0400 R35/0400V0700U FZFG SCT001 M09/M10 Q1006 RMK 3ST001 A2973
RJCB 201032Z 15004KT 0300 R35/0325V0750D FZFG SCT001 M11/M12 Q1006 RMK 3ST001 A2973
RJCB 201020Z 16005KT 0400 R35/0550VP2000U FZFG SCT001 M11/M12 Q1006 RMK 3ST001 A2973
RJCB 201007Z 15005KT 0300 R35/0350V1400D FZFG SCT001 M10/M11 Q1006 RMK 3ST001 A2972
RJCB 201000Z 13002KT 0500 R35/0350VP2000D FZFG FEW001 SCT002 M09/M10 Q1006
RJCB 200947Z VRB02KT 0800 R35/0375VP2000D FZFG FEW001 SCT002 M09/M10 Q1006 RMK 2ST001 4ST002 A2972
RJCB 200938Z 17003KT 0800 R35/0275V0500N FZFG SCT001 BKN002 M09/M10 Q1006 RMK 3ST001 5ST002 A2972
RJCB 200929Z 15002KT 0900 R35/0325VP2000D FZFG FEW001 BKN004 M07/M07 Q1006 RMK 1ST001 5ST004 A2972
RJCB 200908Z VRB01KT 1400 R35/0550VP2000D BR PRFG FEW002 BKN004 M08/M08 Q1006 RMK 1ST002 5ST004 A2971 FG N
RJCB 200900Z 00000KT 1500 R35/0400VP2000U BR FEW003 BKN004 M06/M06 Q1006
RJCB 200848Z 19002KT 1000 R35/0550VP2000U BR FEW003 BKN004 M05/M06 Q1006 RMK 1ST003 5ST004 A2971
RJCB 200838Z VRB01KT 2300 R35/0550VP2000D BR FEW003 BKN004 M06/M07 Q1006 RMK 1ST003 5ST004 A2971
RJCB 200800Z 27004KT 5000 -SHSN FEW003 SCT004 M04/M05 Q1005
RJCB 200700Z 31005KT 5000 -SHSN FEW015 BKN060 M03/M04 Q1005
RJCB 200639Z 31005KT 3200 -SHSN FEW006 BKN080 M03/M04 Q1005 RMK 1ST006 7AC080 A2969
RJCB 200613Z 31005KT 2300 -SHSN FEW006 BKN030 M03/M04 Q1005 RMK 1ST006 7CU030 A2969
RJCB 200600Z 31005KT 2400 -SHSN FEW006 BKN030 M03/M04 Q1005
RJCB 200522Z 32007KT 2300 -SHSN FEW006 BKN030 M02/M04 Q1005 RMK 1ST006 7CU030 A2969
RJCB 200516Z 33007KT 3100 -SHSN FEW006 BKN030 M02/M04 Q1005 RMK 1ST006 7CU030 A2968
RJCB 200500Z 33007KT 4000 R35/2000U -SHSN FEW006 BKN030 M03/M04 Q1005
RJCB 200423Z 33008KT 5000 -SHSN FEW004 BKN030 M03/M04 Q1004 RMK 1ST004 7CU030 A2967
RJCB 200409Z 33007KT 3200 -SHSN FEW004 BKN030 M03/M04 Q1005 RMK 1ST004 7CU030 A2968
RJCB 200400Z 33007KT 2400 -SHSN FEW004 BKN030 M03/M04 Q1005
RJCB 200350Z 33007KT 2300 R35/2000N -SHSN FEW004 BKN030 M03/M04 Q1005 RMK 1ST004 7CU030 A2968
RJCB 200300Z 34008KT 3200 -SHSN FEW004 BKN025 M04/M05 Q1006
RJCB 200200Z 34008KT 2500 -SHSN FEW004 BKN020 M04/M05 Q1007
RJCB 200149Z 34008KT 3100 R35/2000N -SHSN FEW004 BKN020 M04/M05 Q1007 RMK 1ST004 7CU020 A2974
RJCB 200118Z 34008KT 3200 -SHSN FEW006 BKN035 M04/M05 Q1007 RMK 1ST006 7CU035 A2976
RJCB 200100Z 33006KT 2400 -SN FEW015 BKN030 M04/M05 Q1007
RJCB 200050Z 32007KT 1600 -SN FEW015 BKN030 M04/M05 Q1008 RMK 1ST015 7SC030 A2977
RJCB 200000Z 32006KT 1400 R35/1100V1900U -SN FEW012 BKN015 M05/M06 Q1008
RJCB 192324Z 30004KT 1400 R35/1400N -SN FEW012 BKN015 M05/M06 Q1009 RMK 1ST012 7ST015 A2979
RJCB 192315Z 30004KT 1500 R35/1400VP2000D -SN FEW015 BKN020 M06/M06 Q1009 RMK 1ST015 7ST020 A2980
RJCB 192300Z 30003KT 260V320 2000 -SN FEW015 BKN020 M06/M07 Q1009
RJCB 192240Z 29003KT 260V320 1800 R35/2000N -SN FEW015 BKN020 M06/M07 Q1009 RMK 1ST015 7ST020 A2981